Time;durP1;ratioP1;P1;durP2;ratioP2;P2;SDS_P1;SDS_P2;PMS_P1;PMS_P2;Temp;Humidity;BMP_temperature;BMP_pressure;BME280_temperature;BME280_humidity;BME280_pressure;Samples;Min_cycle;Max_cycle;Signal;HPM_P1;HPM_P2
2023/12/13 00:01:38;;;;;;;48.15;20.00;;;7.40;99.90;;;;;;5069711;28;20537;-89
2023/12/13 00:04:04;;;;;;;35.55;19.27;;;7.40;99.90;;;;;;5052623;28;20037;-89
2023/12/13 00:06:30;;;;;;;43.33;19.63;;;7.30;99.90;;;;;;5069278;28;20492;-88
2023/12/13 00:08:56;;;;;;;39.92;18.15;;;7.30;99.90;;;;;;5052411;28;20493;-89
2023/12/13 00:11:21;;;;;;;29.65;13.43;;;7.30;99.90;;;;;;5053170;28;20037;-88
2023/12/13 00:13:47;;;;;;;27.77;10.95;;;7.30;99.90;;;;;;5035694;28;20033;-89
2023/12/13 00:16:13;;;;;;;34.05;11.00;;;7.20;99.90;;;;;;5035403;28;20030;-88
2023/12/13 00:18:38;;;;;;;37.97;14.07;;;7.20;99.90;;;;;;5035846;28;20033;-88
2023/12/13 00:21:04;;;;;;;172.13;53.03;;;7.20;99.90;;;;;;5052769;28;20125;-89
2023/12/13 00:23:30;;;;;;;35.10;14.32;;;7.20;99.90;;;;;;5052405;28;20048;-89
2023/12/13 00:25:55;;;;;;;29.10;14.43;;;7.20;99.90;;;;;;5069064;28;20041;-88
2023/12/13 00:28:21;;;;;;;39.05;15.02;;;7.10;99.90;;;;;;5037815;28;20033;-89
2023/12/13 00:30:47;;;;;;;33.80;14.95;;;7.10;99.90;;;;;;5035292;28;20029;-89
2023/12/13 00:33:12;;;;;;;39.15;16.63;;;7.10;99.90;;;;;;5035056;28;20029;-89
2023/12/13 00:35:38;;;;;;;40.78;15.73;;;7.10;99.90;;;;;;5035333;28;20389;-87
2023/12/13 00:38:04;;;;;;;45.20;17.98;;;7.10;99.90;;;;;;5051901;28;20037;-88
2023/12/13 00:40:30;;;;;;;41.28;17.85;;;7.10;99.90;;;;;;5068691;28;20109;-89
2023/12/13 00:42:56;;;;;;;35.85;17.27;;;7.10;99.90;;;;;;5052033;28;20069;-89
2023/12/13 00:45:22;;;;;;;41.88;17.90;;;7.10;99.90;;;;;;5036521;28;20061;-89
2023/12/13 00:51:35;;;;;;;48.78;17.38;;;7.10;99.90;;;;;;5036813;28;20092;-89
2023/12/13 00:54:01;;;;;;;40.45;18.80;;;7.20;99.90;;;;;;5067915;28;20484;-88
2023/12/13 00:56:30;;;;;;;48.78;18.02;;;7.10;99.90;;;;;;5051255;28;20033;-89
2023/12/13 00:58:55;;;;;;;41.28;18.45;;;7.10;99.90;;;;;;5052531;28;20029;-89
2023/12/13 01:01:21;;;;;;;52.60;22.90;;;7.10;99.90;;;;;;5035864;28;20029;-90
2023/12/13 01:03:47;;;;;;;57.97;23.77;;;7.10;99.90;;;;;;5052368;28;20396;-89
2023/12/13 01:06:12;;;;;;;65.25;24.17;;;7.10;99.90;;;;;;5035255;28;20037;-89
2023/12/13 01:08:38;;;;;;;42.50;19.52;;;7.10;99.90;;;;;;5068564;28;20040;-88
2023/12/13 01:11:10;;;;;;;41.20;20.17;;;7.10;99.90;;;;;;5069311;28;20489;-88
2023/12/13 01:13:37;;;;;;;42.72;20.67;;;7.10;99.90;;;;;;5036392;28;20125;-89
2023/12/13 01:16:03;;;;;;;42.92;18.02;;;7.00;99.90;;;;;;5051196;28;20053;-89
2023/12/13 01:18:29;;;;;;;34.00;17.27;;;7.00;99.90;;;;;;5051419;28;20029;-88
2023/12/13 01:20:54;;;;;;;35.65;15.88;;;7.00;99.90;;;;;;5034418;28;20547;-88
2023/12/13 01:23:20;;;;;;;42.80;16.23;;;6.90;99.90;;;;;;5051350;28;20064;-89
2023/12/13 01:25:46;;;;;;;27.75;13.45;;;6.90;99.90;;;;;;5034378;28;20025;-89
2023/12/13 01:28:11;;;;;;;31.27;13.23;;;6.90;99.90;;;;;;5050805;28;20033;-89
2023/12/13 01:30:37;;;;;;;30.25;13.90;;;6.90;99.90;;;;;;5050620;28;20488;-88
2023/12/13 01:33:03;;;;;;;30.50;13.40;;;6.80;99.90;;;;;;5034314;28;20040;-89
2023/12/13 01:35:28;;;;;;;41.40;15.23;;;6.80;99.90;;;;;;5034095;28;20032;-89
2023/12/13 01:37:54;;;;;;;28.88;13.63;;;6.80;99.90;;;;;;5050770;28;20471;-89
2023/12/13 01:40:20;;;;;;;36.15;17.15;;;6.80;99.90;;;;;;5050771;28;20120;-89
2023/12/13 01:42:46;;;;;;;42.85;17.05;;;6.80;99.90;;;;;;5050708;28;20037;-88
2023/12/13 01:45:11;;;;;;;44.88;16.65;;;6.80;99.90;;;;;;5033438;28;20044;-89
2023/12/13 01:47:38;;;;;;;39.90;16.13;;;6.80;99.90;;;;;;5066996;28;20469;-89
2023/12/13 01:50:04;;;;;;;37.33;17.90;;;6.70;99.90;;;;;;5050677;28;20064;-89
2023/12/13 01:52:30;;;;;;;41.67;17.42;;;6.80;99.90;;;;;;5050424;28;20068;-88
2023/12/13 01:54:56;;;;;;;36.80;16.33;;;6.70;99.90;;;;;;5034353;28;20041;-89
2023/12/13 01:57:22;;;;;;;39.00;15.65;;;6.70;99.90;;;;;;5033697;28;20033;-88
2023/12/13 01:59:48;;;;;;;33.47;13.88;;;6.80;99.90;;;;;;5050239;28;20040;-89
2023/12/13 02:02:14;;;;;;;31.45;13.70;;;6.70;99.90;;;;;;5034177;28;20045;-88
2023/12/13 02:04:42;;;;;;;26.50;12.15;;;6.70;99.90;;;;;;5034075;28;20030;-88
2023/12/13 02:07:08;;;;;;;29.10;13.00;;;6.70;99.90;;;;;;5049643;28;20033;-89
2023/12/13 02:09:34;;;;;;;31.65;13.23;;;6.70;99.90;;;;;;5066961;28;20582;-88
2023/12/13 02:12:00;;;;;;;26.13;13.32;;;6.70;99.90;;;;;;5034039;28;20025;-89
2023/12/13 02:14:25;;;;;;;25.08;11.60;;;6.60;99.90;;;;;;5050368;28;20034;-88
2023/12/13 02:16:53;;;;;;;25.75;11.52;;;6.60;99.90;;;;;;5033640;28;20032;-89
2023/12/13 02:19:19;;;;;;;34.20;11.90;;;6.60;99.90;;;;;;5049796;28;20057;-88
2023/12/13 02:21:44;;;;;;;29.05;11.15;;;6.60;99.90;;;;;;5033391;28;20507;-88
2023/12/13 02:24:10;;;;;;;21.95;10.35;;;6.50;99.90;;;;;;5049988;28;20124;-88
2023/12/13 02:26:40;;;;;;;25.92;11.02;;;6.50;99.90;;;;;;5049881;28;20025;-88
2023/12/13 02:29:09;;;;;;;23.35;10.07;;;6.50;99.90;;;;;;5049976;28;20552;-88
2023/12/13 02:31:36;;;;;;;23.02;10.27;;;6.50;99.90;;;;;;5049894;28;20032;-89
2023/12/13 02:34:02;;;;;;;19.88;10.18;;;6.50;99.90;;;;;;5066668;28;20380;-89
2023/12/13 02:36:28;;;;;;;21.20;9.70;;;6.50;99.90;;;;;;5049606;28;20086;-89
2023/12/13 02:38:53;;;;;;;21.25;9.27;;;6.50;99.90;;;;;;5016585;28;20036;-89
2023/12/13 02:41:19;;;;;;;23.13;8.85;;;6.50;99.90;;;;;;5016701;28;20370;-89
2023/12/13 02:43:45;;;;;;;30.17;8.95;;;6.50;99.90;;;;;;5034404;28;20481;-90
2023/12/13 02:46:11;;;;;;;17.08;8.65;;;6.40;99.90;;;;;;5033146;28;20029;-88
2023/12/13 02:48:37;;;;;;;16.25;8.50;;;6.40;99.90;;;;;;5033121;28;20026;-89
2023/12/13 02:51:03;;;;;;;16.63;7.55;;;6.40;99.90;;;;;;5032809;28;20056;-87
2023/12/13 02:53:29;;;;;;;17.90;7.80;;;6.40;99.90;;;;;;5033490;28;20041;-88
2023/12/13 02:55:54;;;;;;;10.90;6.43;;;6.40;99.90;;;;;;5035312;28;20029;-89
2023/12/13 02:58:21;;;;;;;16.67;6.35;;;6.40;99.90;;;;;;5037132;28;20499;-88
2023/12/13 03:00:48;;;;;;;14.07;6.80;;;6.30;99.90;;;;;;5037211;28;20025;-88
2023/12/13 03:03:13;;;;;;;11.10;6.13;;;6.40;99.90;;;;;;5036921;28;20083;-88
2023/12/13 03:05:39;;;;;;;13.57;6.53;;;6.30;99.90;;;;;;5036913;28;20033;-88
2023/12/13 03:08:05;;;;;;;16.15;6.95;;;6.30;99.90;;;;;;5036839;28;20042;-88
2023/12/13 03:10:30;;;;;;;18.63;7.53;;;6.30;99.90;;;;;;5036934;28;20155;-88
2023/12/13 03:12:56;;;;;;;14.85;7.25;;;6.30;99.90;;;;;;5036872;28;20056;-89
2023/12/13 03:15:22;;;;;;;19.70;10.10;;;6.30;99.90;;;;;;5020051;28;20025;-88
2023/12/13 03:17:47;;;;;;;23.98;10.15;;;6.30;99.90;;;;;;5053304;28;20040;-88
2023/12/13 03:20:13;;;;;;;28.75;12.00;;;6.30;99.90;;;;;;5053828;28;20029;-88
2023/12/13 03:22:39;;;;;;;22.77;10.90;;;6.30;99.90;;;;;;5052789;28;20099;-88
2023/12/13 03:25:05;;;;;;;24.02;10.75;;;6.30;99.90;;;;;;5052613;28;20041;-88
2023/12/13 03:27:31;;;;;;;25.00;13.55;;;6.30;99.90;;;;;;5053112;28;20033;-88
2023/12/13 03:29:56;;;;;;;24.30;12.45;;;6.30;99.90;;;;;;5053015;28;20029;-87
2023/12/13 03:32:22;;;;;;;28.73;12.68;;;6.30;99.90;;;;;;5038103;28;20026;-89
2023/12/13 03:34:47;;;;;;;28.42;12.85;;;6.30;99.90;;;;;;5069395;28;20087;-89
2023/12/13 03:37:15;;;;;;;35.15;13.85;;;6.30;99.90;;;;;;5069915;28;20473;-88
2023/12/13 03:39:41;;;;;;;29.20;14.30;;;6.30;99.90;;;;;;5069595;28;20396;-88
2023/12/13 03:42:06;;;;;;;24.83;12.20;;;6.30;99.90;;;;;;5053074;28;20036;-88
2023/12/13 03:44:32;;;;;;;24.65;13.18;;;6.30;99.90;;;;;;5053228;28;20439;-89
2023/12/13 03:46:58;;;;;;;43.67;14.75;;;6.20;99.90;;;;;;5053139;28;20021;-89
2023/12/13 03:49:23;;;;;;;31.92;16.00;;;6.20;99.90;;;;;;5069701;28;20025;-88
2023/12/13 03:51:49;;;;;;;29.42;15.77;;;6.20;99.90;;;;;;5052940;28;20061;-89
2023/12/13 03:54:15;;;;;;;41.22;17.38;;;6.20;99.90;;;;;;5052683;28;20037;-88
2023/12/13 03:56:42;;;;;;;32.72;16.42;;;6.20;99.90;;;;;;5052373;28;20029;-88
2023/12/13 03:59:08;;;;;;;37.35;17.35;;;6.20;99.90;;;;;;5052747;28;20021;-89
2023/12/13 04:01:34;;;;;;;40.03;16.98;;;6.20;99.90;;;;;;5069130;28;20124;-89
2023/12/13 04:04:00;;;;;;;30.90;14.68;;;6.20;99.90;;;;;;5035717;28;20498;-88
2023/12/13 04:06:25;;;;;;;25.75;14.15;;;6.20;99.90;;;;;;5052164;28;20108;-88
2023/12/13 04:08:51;;;;;;;22.25;13.23;;;6.20;99.90;;;;;;5036177;28;20492;-88
2023/12/13 04:11:17;;;;;;;27.50;13.98;;;6.20;99.90;;;;;;5035925;28;20116;-88
2023/12/13 04:13:43;;;;;;;28.25;13.00;;;6.20;99.90;;;;;;5052227;28;20471;-89
2023/12/13 04:16:08;;;;;;;26.42;12.55;;;6.20;99.90;;;;;;5051906;28;20029;-88
2023/12/13 04:18:35;;;;;;;24.35;12.32;;;6.20;99.90;;;;;;5051940;28;20404;-88
2023/12/13 04:21:01;;;;;;;24.45;13.60;;;6.20;99.90;;;;;;5035892;28;20481;-88
2023/12/13 04:23:26;;;;;;;27.08;13.27;;;6.20;99.90;;;;;;5052020;28;20033;-88
2023/12/13 04:25:52;;;;;;;27.75;13.20;;;6.20;99.90;;;;;;5034932;28;20040;-88
2023/12/13 04:28:18;;;;;;;20.80;11.45;;;6.10;99.90;;;;;;5052019;28;20040;-88
2023/12/13 04:30:44;;;;;;;27.70;11.52;;;6.20;99.90;;;;;;5035089;28;20097;-88
2023/12/13 04:33:09;;;;;;;30.70;12.93;;;6.10;99.90;;;;;;5068607;28;20060;-88
2023/12/13 04:35:35;;;;;;;32.22;12.55;;;6.10;99.90;;;;;;5035370;28;20033;-88
2023/12/13 04:38:01;;;;;;;28.35;12.77;;;6.10;99.90;;;;;;5052063;28;20025;-88
2023/12/13 04:40:26;;;;;;;34.25;11.23;;;6.10;99.90;;;;;;5052004;28;20534;-89
2023/12/13 04:42:52;;;;;;;28.58;10.40;;;6.00;99.90;;;;;;5036464;28;20040;-88
2023/12/13 04:45:18;;;;;;;22.30;10.75;;;6.00;99.90;;;;;;5035117;28;20393;-88
2023/12/13 04:47:43;;;;;;;30.55;10.63;;;6.00;99.90;;;;;;5035292;28;20400;-88
2023/12/13 04:50:09;;;;;;;28.42;9.65;;;6.00;99.90;;;;;;5052384;28;20025;-88
2023/12/13 04:52:35;;;;;;;22.20;7.57;;;6.00;99.90;;;;;;5035037;28;20029;-88
2023/12/13 04:55:02;;;;;;;18.17;8.13;;;6.10;99.90;;;;;;5035210;28;20056;-88
2023/12/13 04:57:27;;;;;;;33.53;7.72;;;6.00;99.90;;;;;;5034828;28;20119;-88
2023/12/13 04:59:53;;;;;;;17.83;7.63;;;6.00;99.90;;;;;;5051233;28;20469;-88
2023/12/13 05:02:19;;;;;;;27.38;7.72;;;6.00;99.90;;;;;;5018132;28;20037;-89
2023/12/13 05:04:45;;;;;;;20.77;8.02;;;6.00;99.90;;;;;;5034912;28;20053;-88
2023/12/13 05:07:11;;;;;;;30.42;8.32;;;6.00;99.90;;;;;;5034719;28;20423;-89
2023/12/13 05:10:27;;;;;;;32.90;8.15;;;6.00;99.90;;;;;;5034581;28;20091;-88
2023/12/13 05:12:53;;;;;;;20.55;6.60;;;6.10;99.90;;;;;;5034291;28;20040;-88
2023/12/13 05:15:19;;;;;;;28.52;7.88;;;6.10;99.90;;;;;;5034678;28;20457;-88
2023/12/13 05:17:44;;;;;;;23.95;7.22;;;6.10;99.90;;;;;;5034142;28;20045;-87
2023/12/13 05:20:10;;;;;;;22.13;7.40;;;6.10;99.90;;;;;;5050647;28;20033;-88
2023/12/13 05:22:36;;;;;;;25.50;9.80;;;6.10;99.90;;;;;;5034690;28;20366;-88
2023/12/13 05:25:02;;;;;;;20.95;9.90;;;6.10;99.90;;;;;;5017711;28;20090;-89
2023/12/13 05:27:27;;;;;;;26.63;9.48;;;6.20;99.90;;;;;;5034418;28;20043;-89
2023/12/13 05:29:53;;;;;;;28.83;8.82;;;6.10;99.90;;;;;;5034378;28;20029;-89
2023/12/13 05:32:19;;;;;;;26.20;8.65;;;6.10;99.90;;;;;;5034218;28;20029;-89
2023/12/13 05:34:44;;;;;;;23.23;9.15;;;6.10;99.90;;;;;;5035690;28;20037;-89
2023/12/13 05:37:10;;;;;;;27.48;9.05;;;6.10;99.90;;;;;;5034600;28;20040;-88
2023/12/13 05:39:36;;;;;;;27.08;7.85;;;6.10;99.90;;;;;;5034475;28;20025;-89
2023/12/13 05:42:02;;;;;;;25.05;9.55;;;6.20;99.90;;;;;;5051202;28;20033;-88
2023/12/13 05:44:29;;;;;;;20.23;8.20;;;6.20;99.90;;;;;;5017827;28;20037;-89
2023/12/13 05:46:55;;;;;;;27.90;9.63;;;6.20;99.90;;;;;;5034561;28;20520;-89
2023/12/13 05:49:20;;;;;;;23.90;10.27;;;6.20;99.90;;;;;;5024465;28;20026;-89
2023/12/13 05:51:46;;;;;;;26.95;10.65;;;6.20;99.90;;;;;;5084501;28;20026;-90
2023/12/13 05:54:12;;;;;;;44.53;14.15;;;6.30;99.90;;;;;;5069485;28;20034;-89
2023/12/13 05:56:37;;;;;;;42.53;12.07;;;6.30;99.90;;;;;;5064077;28;20025;-89
2023/12/13 05:59:03;;;;;;;49.35;16.45;;;6.30;99.90;;;;;;5067116;28;20029;-89
2023/12/13 06:01:29;;;;;;;45.72;17.17;;;6.30;99.90;;;;;;5050125;28;20034;-88
2023/12/13 06:03:54;;;;;;;43.78;20.10;;;6.30;99.90;;;;;;5050127;28;20056;-89
2023/12/13 06:06:20;;;;;;;51.25;23.20;;;6.30;99.90;;;;;;5066942;28;20388;-89
2023/12/13 06:08:46;;;;;;;46.40;19.92;;;6.30;99.90;;;;;;5066715;28;20444;-89
2023/12/13 06:11:11;;;;;;;64.80;24.67;;;6.30;99.90;;;;;;5050104;28;20120;-89
2023/12/13 06:13:37;;;;;;;44.60;19.77;;;6.30;99.90;;;;;;5034312;28;20033;-89
2023/12/13 06:16:03;;;;;;;41.70;18.27;;;6.30;99.90;;;;;;5050995;28;20029;-89
2023/12/13 06:18:29;;;;;;;43.53;19.77;;;6.30;99.90;;;;;;5051656;28;20041;-89
2023/12/13 06:20:54;;;;;;;39.85;17.67;;;6.40;99.90;;;;;;5035101;28;20026;-89
2023/12/13 06:23:21;;;;;;;43.95;21.00;;;6.30;99.90;;;;;;5033385;28;20033;-88
2023/12/13 06:25:46;;;;;;;49.35;20.42;;;6.30;99.90;;;;;;5066906;28;20077;-88
2023/12/13 06:28:12;;;;;;;41.22;20.63;;;6.40;99.90;;;;;;5048605;28;20064;-89
2023/12/13 06:30:37;;;;;;;38.47;20.90;;;6.40;99.90;;;;;;5032935;28;20092;-88
2023/12/13 06:33:03;;;;;;;47.72;20.85;;;6.40;99.90;;;;;;5034711;28;20036;-89
2023/12/13 06:35:29;;;;;;;60.33;22.90;;;6.40;99.90;;;;;;5049696;28;20030;-89
2023/12/13 06:37:54;;;;;;;44.05;20.20;;;6.40;99.90;;;;;;5066775;28;20053;-90
2023/12/13 06:40:20;;;;;;;58.55;23.42;;;6.40;99.90;;;;;;5066598;28;20142;-90
2023/12/13 06:42:46;;;;;;;49.70;19.92;;;6.40;99.90;;;;;;5034664;28;20050;-90
2023/12/13 06:45:12;;;;;;;60.53;24.52;;;6.40;99.90;;;;;;5034036;28;20033;-89
2023/12/13 06:47:37;;;;;;;43.90;18.85;;;6.40;99.90;;;;;;5050103;28;20030;-89
2023/12/13 06:50:03;;;;;;;43.47;16.20;;;6.40;99.90;;;;;;5050006;28;20113;-89
2023/12/13 06:52:29;;;;;;;35.78;16.67;;;6.40;99.90;;;;;;5033170;28;20542;-88
2023/12/13 06:54:56;;;;;;;44.80;17.48;;;6.40;99.90;;;;;;5033004;28;20025;-89
2023/12/13 06:57:22;;;;;;;46.35;18.08;;;6.40;99.90;;;;;;5033417;28;20432;-89
2023/12/13 06:59:47;;;;;;;47.60;15.88;;;6.40;99.90;;;;;;5032945;28;20029;-89
2023/12/13 07:02:13;;;;;;;45.83;20.23;;;6.40;99.90;;;;;;5049426;28;20029;-89
2023/12/13 07:04:39;;;;;;;41.95;17.85;;;6.40;99.90;;;;;;5033324;28;20029;-89
2023/12/13 07:07:05;;;;;;;42.97;19.23;;;6.40;99.90;;;;;;5050060;28;20175;-89
2023/12/13 07:09:30;;;;;;;38.72;16.38;;;6.40;99.90;;;;;;5049642;28;20065;-88
2023/12/13 07:11:56;;;;;;;38.42;17.08;;;6.30;99.90;;;;;;5049237;28;20025;-87
2023/12/13 07:14:22;;;;;;;49.55;16.63;;;6.30;99.90;;;;;;5047784;28;20032;-87
2023/12/13 07:16:48;;;;;;;40.95;15.27;;;6.40;99.90;;;;;;5030646;28;20530;-87
2023/12/13 07:19:13;;;;;;;41.97;16.10;;;6.40;99.90;;;;;;5030408;28;20056;-86
2023/12/13 07:21:39;;;;;;;37.30;16.30;;;6.30;99.90;;;;;;5047426;28;20034;-87
2023/12/13 07:24:05;;;;;;;44.55;17.30;;;6.40;99.90;;;;;;5046267;28;20033;-86
2023/12/13 07:26:31;;;;;;;54.55;18.40;;;6.40;99.90;;;;;;5047158;28;20033;-87
2023/12/13 07:28:56;;;;;;;68.55;19.35;;;6.30;99.90;;;;;;5046400;28;20685;-86
2023/12/13 07:31:23;;;;;;;90.88;20.77;;;6.30;99.90;;;;;;5030308;28;20029;-86
2023/12/13 07:33:48;;;;;;;73.63;20.00;;;6.30;99.90;;;;;;5030155;28;20041;-87
2023/12/13 07:36:14;;;;;;;69.03;20.90;;;6.30;99.90;;;;;;5046767;28;20033;-87
2023/12/13 07:38:41;;;;;;;41.72;16.05;;;6.30;99.90;;;;;;5030502;28;20037;-87
2023/12/13 07:41:08;;;;;;;49.65;16.95;;;6.30;99.90;;;;;;5046884;28;20037;-87
2023/12/13 07:43:33;;;;;;;35.88;14.15;;;6.20;99.90;;;;;;5050655;28;20056;-87
2023/12/13 07:45:59;;;;;;;40.45;14.40;;;6.30;99.90;;;;;;5050999;28;20079;-87
2023/12/13 07:48:25;;;;;;;35.45;14.32;;;6.30;99.90;;;;;;5050904;28;20129;-87
2023/12/13 07:50:51;;;;;;;36.30;13.23;;;6.30;99.90;;;;;;5051059;28;20440;-87
2023/12/13 07:53:17;;;;;;;25.20;10.60;;;6.20;99.90;;;;;;5050676;28;20034;-87
2023/12/13 07:55:43;;;;;;;25.58;11.15;;;6.20;99.90;;;;;;5050637;28;20056;-87
2023/12/13 07:58:08;;;;;;;29.35;12.10;;;6.20;99.90;;;;;;5051371;28;20065;-88
2023/12/13 08:00:35;;;;;;;30.88;12.85;;;6.30;99.90;;;;;;5067196;28;20435;-87
2023/12/13 08:03:01;;;;;;;33.03;13.23;;;6.20;99.90;;;;;;5033494;28;20040;-87
2023/12/13 08:05:26;;;;;;;27.40;11.90;;;6.20;99.90;;;;;;5050247;28;20097;-88
2023/12/13 08:07:52;;;;;;;48.45;13.70;;;6.20;99.90;;;;;;5049815;28;20048;-88
2023/12/13 08:10:18;;;;;;;35.42;13.32;;;6.20;99.90;;;;;;5049662;28;20033;-88
2023/12/13 08:12:44;;;;;;;36.63;13.13;;;6.20;99.90;;;;;;5050224;28;20124;-88
2023/12/13 08:15:10;;;;;;;35.10;12.18;;;6.30;99.90;;;;;;5049607;28;20034;-87
2023/12/13 08:17:37;;;;;;;32.75;11.70;;;6.30;99.90;;;;;;5033428;28;20017;-87
2023/12/13 08:20:04;;;;;;;40.47;14.77;;;6.30;99.90;;;;;;5050382;28;20025;-87
2023/12/13 08:22:30;;;;;;;41.42;13.23;;;6.30;99.90;;;;;;5066793;28;20169;-87
2023/12/13 08:24:55;;;;;;;26.73;12.80;;;6.30;99.90;;;;;;5050382;28;20041;-87
2023/12/13 08:27:21;;;;;;;43.00;14.15;;;6.30;99.90;;;;;;5033800;28;20530;-87
2023/12/13 08:29:47;;;;;;;30.27;12.88;;;6.20;99.90;;;;;;5033243;28;20082;-88
2023/12/13 08:32:15;;;;;;;29.70;10.63;;;6.20;99.90;;;;;;5049875;28;20037;-87
2023/12/13 08:34:40;;;;;;;17.83;8.50;;;6.20;99.90;;;;;;5049496;28;20033;-86
2023/12/13 08:37:06;;;;;;;29.48;7.47;;;6.30;99.90;;;;;;5033095;28;20116;-87
2023/12/13 08:39:32;;;;;;;24.20;7.25;;;6.30;99.90;;;;;;5032522;28;20037;-87
2023/12/13 08:41:58;;;;;;;20.60;7.25;;;6.40;99.90;;;;;;5049632;28;20029;-87
2023/12/13 08:44:24;;;;;;;22.58;7.80;;;6.40;99.90;;;;;;5032547;28;20037;-87
2023/12/13 08:46:50;;;;;;;19.80;7.88;;;6.40;99.90;;;;;;5032739;28;20033;-87
2023/12/13 08:49:18;;;;;;;21.38;7.82;;;6.40;99.90;;;;;;5033003;28;20056;-87
2023/12/13 08:51:44;;;;;;;14.55;7.07;;;6.40;99.90;;;;;;5032933;28;20045;-87
2023/12/13 08:54:09;;;;;;;10.10;5.70;;;6.40;99.90;;;;;;5032476;28;20030;-87
2023/12/13 08:56:35;;;;;;;9.88;5.43;;;6.40;99.90;;;;;;5033205;28;20116;-88
2023/12/13 08:59:01;;;;;;;8.65;5.18;;;6.30;99.90;;;;;;5016236;28;20487;-87
2023/12/13 09:01:27;;;;;;;11.00;5.07;;;6.30;99.90;;;;;;5032728;28;20036;-87
2023/12/13 09:03:53;;;;;;;10.73;6.82;;;6.20;99.90;;;;;;5033203;28;20063;-87
2023/12/13 09:06:20;;;;;;;18.38;6.65;;;6.20;99.90;;;;;;5032466;28;20552;-87
2023/12/13 09:08:45;;;;;;;11.30;6.03;;;6.20;99.90;;;;;;5032260;28;20057;-87
2023/12/13 09:11:12;;;;;;;10.32;6.22;;;6.20;99.90;;;;;;5016186;28;20069;-87
2023/12/13 09:13:38;;;;;;;10.80;6.50;;;6.20;99.90;;;;;;5015437;28;20026;-87
2023/12/13 09:16:04;;;;;;;14.38;6.90;;;6.20;99.90;;;;;;5031607;28;20032;-87
2023/12/13 09:18:30;;;;;;;11.25;6.40;;;6.10;99.90;;;;;;5031460;28;20515;-87
2023/12/13 09:20:56;;;;;;;13.07;8.32;;;6.10;99.90;;;;;;5015540;28;20029;-87
2023/12/13 09:23:23;;;;;;;14.88;7.88;;;6.10;99.90;;;;;;5032377;28;20038;-87
2023/12/13 09:25:50;;;;;;;10.52;6.68;;;6.10;99.90;;;;;;5031664;28;20425;-87
2023/12/13 09:28:17;;;;;;;16.38;7.45;;;6.10;99.90;;;;;;5031958;28;20033;-87
2023/12/13 09:30:44;;;;;;;14.73;8.32;;;6.10;99.90;;;;;;5032139;28;20053;-86
2023/12/13 09:33:13;;;;;;;14.85;8.63;;;6.10;99.90;;;;;;5031971;28;20095;-87
2023/12/13 09:35:40;;;;;;;20.08;9.25;;;6.20;99.90;;;;;;5031871;28;20029;-87
2023/12/13 09:38:06;;;;;;;15.23;8.35;;;6.20;99.90;;;;;;5032853;28;20032;-86
2023/12/13 09:40:32;;;;;;;20.60;10.27;;;6.20;99.90;;;;;;5032493;28;20116;-87
2023/12/13 09:42:58;;;;;;;18.33;8.93;;;6.30;99.90;;;;;;5048449;28;20064;-86
2023/12/13 09:45:23;;;;;;;22.35;10.48;;;6.30;99.90;;;;;;5015085;28;20037;-87
2023/12/13 09:47:51;;;;;;;19.23;10.35;;;6.30;99.90;;;;;;5047976;28;20615;-87
2023/12/13 09:50:18;;;;;;;22.52;10.98;;;6.30;99.90;;;;;;5047659;28;20026;-87
2023/12/13 09:52:44;;;;;;;22.60;9.85;;;6.40;99.90;;;;;;5030437;28;20037;-87
2023/12/13 09:55:11;;;;;;;20.70;9.45;;;6.40;99.90;;;;;;5030701;28;20397;-86
2023/12/13 09:57:37;;;;;;;24.13;11.45;;;6.40;99.90;;;;;;5031438;28;20033;-87
2023/12/13 10:00:05;;;;;;;32.90;12.65;;;6.50;99.90;;;;;;5047425;28;20034;-86
2023/12/13 10:02:34;;;;;;;36.13;14.50;;;6.40;99.90;;;;;;5063742;28;20033;-86
2023/12/13 10:04:59;;;;;;;26.25;14.23;;;6.40;99.90;;;;;;5046380;28;20030;-86
2023/12/13 10:07:27;;;;;;;27.38;13.27;;;6.50;99.90;;;;;;5047168;28;20033;-86
2023/12/13 10:09:55;;;;;;;28.40;13.80;;;6.60;99.90;;;;;;5047018;28;20030;-87
2023/12/13 10:12:21;;;;;;;25.80;14.52;;;6.60;99.90;;;;;;5030629;28;20370;-86
2023/12/13 10:14:47;;;;;;;37.85;19.52;;;6.60;99.90;;;;;;5048089;28;20115;-86
2023/12/13 10:17:13;;;;;;;29.63;17.98;;;6.70;99.90;;;;;;5047387;28;20483;-86
2023/12/13 10:19:39;;;;;;;34.53;15.80;;;6.80;99.90;;;;;;5047731;28;20072;-85
2023/12/13 10:22:05;;;;;;;40.60;20.30;;;6.80;99.90;;;;;;5047981;28;20083;-85
2023/12/13 10:24:31;;;;;;;36.80;16.83;;;6.80;99.90;;;;;;5049053;28;20665;-87
2023/12/13 10:26:57;;;;;;;27.85;13.68;;;6.80;99.90;;;;;;5031145;28;20029;-86
2023/12/13 10:29:23;;;;;;;30.23;15.13;;;6.90;99.90;;;;;;5030909;28;20044;-86
2023/12/13 10:31:49;;;;;;;32.85;15.43;;;6.90;99.90;;;;;;5047450;28;20546;-86
2023/12/13 10:34:15;;;;;;;31.40;14.85;;;6.90;99.90;;;;;;5046974;28;20038;-86
2023/12/13 10:36:42;;;;;;;26.20;15.32;;;6.80;99.90;;;;;;5047254;28;20079;-86
2023/12/13 10:39:13;;;;;;;23.90;14.98;;;6.90;99.90;;;;;;5047848;28;20831;-85
2023/12/13 10:41:44;;;;;;;26.92;13.35;;;7.00;99.90;;;;;;5047913;28;20030;-87
2023/12/13 10:44:15;;;;;;;25.10;14.52;;;6.90;99.90;;;;;;5048528;28;20041;-86
2023/12/13 10:46:47;;;;;;;32.65;13.45;;;7.00;99.90;;;;;;5047260;28;20079;-86
2023/12/13 10:49:16;;;;;;;;;;;7.00;99.90;;;;;;5031265;28;20040;-86
2023/12/13 10:51:46;;;;;;;35.13;16.85;;;7.10;99.90;;;;;;5030795;28;20631;-86
2023/12/13 10:54:13;;;;;;;20.67;13.23;;;7.20;99.90;;;;;;5047712;28;20393;-86
2023/12/13 10:56:39;;;;;;;28.65;14.93;;;7.10;99.90;;;;;;5031274;28;20488;-86
2023/12/13 10:59:07;;;;;;;25.98;15.45;;;7.00;99.90;;;;;;5032868;28;20041;-86
2023/12/13 11:01:34;;;;;;;20.02;12.93;;;7.00;99.90;;;;;;5047380;28;20034;-86
2023/12/13 11:04:09;;;;;;;27.58;13.07;;;7.00;99.90;;;;;;5047376;28;20033;-86
2023/12/13 11:06:37;;;;;;;23.48;14.82;;;7.10;99.90;;;;;;5031262;28;20037;-86
2023/12/13 11:09:21;;;;;;;23.98;14.50;;;7.10;99.90;;;;;;5031084;28;20026;-86
2023/12/13 11:11:47;;;;;;;29.13;14.88;;;7.20;99.90;;;;;;5047562;28;20033;-86
2023/12/13 11:14:15;;;;;;;24.00;14.57;;;7.30;99.90;;;;;;5030925;28;20039;-86
2023/12/13 11:16:45;;;;;;;28.48;13.02;;;7.30;99.90;;;;;;5047778;28;20129;-86
2023/12/13 11:19:19;;;;;;;22.80;12.15;;;7.40;99.90;;;;;;5068347;28;20076;-86
2023/12/13 11:21:51;;;;;;;25.38;13.50;;;7.50;99.90;;;;;;5034308;28;20041;-86
2023/12/13 11:24:22;;;;;;;20.55;11.55;;;8.00;99.90;;;;;;5050698;28;20033;-87
2023/12/13 11:26:50;;;;;;;19.17;9.68;;;8.50;99.90;;;;;;5050752;28;20043;-87
2023/12/13 11:29:26;;;;;;;20.83;7.68;;;8.50;99.90;;;;;;5034752;28;20060;-87
2023/12/13 11:31:58;;;;;;;22.50;8.02;;;8.60;99.90;;;;;;5035501;28;20114;-86
2023/12/13 11:34:45;;;;;;;9.90;5.72;;;8.40;99.90;;;;;;5034968;28;20480;-86
2023/12/13 11:37:12;;;;;;;14.13;6.40;;;8.20;99.90;;;;;;5018142;28;20022;-86
2023/12/13 11:39:40;;;;;;;16.83;5.93;;;8.10;99.90;;;;;;5033766;28;20037;-87
2023/12/13 11:42:08;;;;;;;13.27;5.38;;;8.10;99.90;;;;;;5033601;28;20037;-86
2023/12/13 11:44:36;;;;;;;17.38;6.30;;;7.90;99.90;;;;;;5034112;28;20029;-87
2023/12/13 11:47:07;;;;;;;10.13;5.38;;;7.70;99.90;;;;;;5035584;28;20032;-87
2023/12/13 11:49:32;;;;;;;12.07;5.00;;;7.50;99.90;;;;;;5033298;28;20039;-87
2023/12/13 11:52:00;;;;;;;18.48;7.60;;;7.50;99.90;;;;;;5033844;28;20030;-87
2023/12/13 11:54:26;;;;;;;21.35;7.13;;;7.40;99.90;;;;;;5033989;28;20037;-87
2023/12/13 11:56:51;;;;;;;12.10;7.53;;;7.50;99.90;;;;;;5034144;28;20034;-86
2023/12/13 11:59:21;;;;;;;16.88;7.38;;;7.50;99.90;;;;;;5034540;28;20034;-87
2023/12/13 12:01:47;;;;;;;17.88;6.57;;;7.70;99.90;;;;;;5034370;28;20508;-87
2023/12/13 12:04:15;;;;;;;16.83;8.13;;;7.90;99.90;;;;;;5035124;28;20659;-87
2023/12/13 12:06:48;;;;;;;23.35;10.20;;;7.90;99.90;;;;;;5018223;28;20034;-87
2023/12/13 12:09:15;;;;;;;19.38;9.32;;;8.00;99.90;;;;;;5067024;28;20079;-87
2023/12/13 12:11:41;;;;;;;12.65;8.18;;;8.10;99.90;;;;;;5034110;28;20389;-87
2023/12/13 12:14:10;;;;;;;14.73;5.20;;;8.10;99.90;;;;;;5033799;28;20033;-87
2023/12/13 12:16:37;;;;;;;11.50;5.90;;;7.90;99.90;;;;;;5034897;28;20536;-87
2023/12/13 12:19:05;;;;;;;13.18;6.03;;;7.80;99.90;;;;;;5034331;28;20029;-88
2023/12/13 12:21:33;;;;;;;18.83;5.95;;;7.70;99.90;;;;;;5033781;28;20591;-86
2023/12/13 12:23:59;;;;;;;13.52;6.47;;;7.70;99.90;;;;;;5034097;28;20506;-87
2023/12/13 12:26:25;;;;;;;16.48;6.57;;;7.60;99.90;;;;;;5034260;28;20041;-87
2023/12/13 12:28:51;;;;;;;14.70;5.88;;;7.60;99.90;;;;;;5033274;28;20041;-87
2023/12/13 12:31:18;;;;;;;17.48;5.68;;;7.70;99.90;;;;;;5017067;28;20750;-87
2023/12/13 12:33:52;;;;;;;11.32;5.28;;;7.90;99.90;;;;;;5034268;28;20026;-88
2023/12/13 12:36:17;;;;;;;9.40;4.32;;;7.90;99.90;;;;;;5033939;28;20034;-87
2023/12/13 12:38:47;;;;;;;14.57;5.65;;;7.80;99.90;;;;;;5033587;28;20036;-87
2023/12/13 12:41:13;;;;;;;16.02;6.38;;;7.80;99.90;;;;;;5033491;28;20028;-87